createdAt,value
2023-01-21T00:02:36.812Z,23.55
2023-01-21T00:07:38.610Z,22.83
2023-01-21T00:12:40.166Z,20.98
2023-01-21T00:17:43.992Z,21.60
2023-01-21T00:22:45.815Z,20.88
2023-01-21T00:27:47.992Z,22.08
2023-01-21T00:32:49.667Z,22.08
2023-01-21T00:37:52.145Z,22.40
2023-01-21T00:42:53.917Z,22.60
2023-01-21T00:47:55.528Z,22.48
2023-01-21T00:52:57.155Z,22.17
2023-01-21T00:57:58.752Z,22.20
2023-01-21T01:03:00.562Z,23.25
2023-01-21T01:08:02.238Z,22.25
2023-01-21T01:13:03.872Z,22.80
2023-01-21T01:18:05.574Z,21.92
2023-01-21T01:23:07.185Z,22.80
2023-01-21T01:28:08.924Z,21.90
2023-01-21T01:33:10.824Z,21.88
2023-01-21T01:38:13.876Z,22.67
2023-01-21T01:43:21.342Z,22.00
2023-01-21T01:48:28.539Z,23.05
2023-01-21T01:53:31.773Z,22.30
2023-01-21T01:58:33.826Z,24.75
2023-01-21T02:03:46.035Z,23.70
2023-01-21T02:08:47.915Z,22.83
2023-01-21T02:13:56.308Z,22.83
2023-01-21T02:19:28.865Z,24.27
2023-01-21T02:24:39.204Z,23.42
2023-01-21T02:30:12.927Z,23.13
2023-01-21T02:35:34.769Z,23.80
2023-01-21T02:40:57.478Z,23.00
2023-01-21T02:46:17.119Z,24.48
2023-01-21T02:51:20.341Z,23.53
2023-01-21T02:56:26.640Z,23.08
2023-01-21T03:01:59.424Z,24.98
2023-01-21T03:07:10.119Z,24.88
2023-01-21T03:12:35.311Z,25.65
2023-01-21T03:17:53.549Z,26.55
2023-01-21T03:23:01.393Z,26.33
2023-01-21T03:28:08.133Z,25.92
2023-01-21T03:33:12.933Z,26.33
2023-01-21T03:38:21.906Z,27.85
2023-01-21T03:43:23.680Z,25.73
2023-01-21T03:48:32.955Z,25.52
2023-01-21T03:53:34.676Z,25.40
2023-01-21T03:58:36.401Z,25.77
2023-01-21T04:03:38.137Z,26.40
2023-01-21T04:08:39.824Z,25.35
2023-01-21T04:13:41.814Z,25.42
2023-01-21T04:18:43.442Z,24.05
2023-01-21T04:23:45.139Z,26.15
2023-01-21T04:28:46.818Z,25.60
2023-01-21T04:33:48.452Z,27.63
2023-01-21T04:38:50.162Z,27.05
2023-01-21T04:43:51.907Z,24.65
2023-01-21T04:48:53.580Z,26.33
2023-01-21T04:53:55.265Z,28.40
2023-01-21T04:58:56.924Z,25.38
2023-01-21T05:03:58.638Z,26.48
2023-01-21T05:09:00.285Z,25.65
2023-01-21T05:14:01.972Z,26.55
2023-01-21T05:19:03.853Z,25.10
2023-01-21T05:24:05.809Z,26.40
2023-01-21T05:29:07.526Z,26.88
2023-01-21T05:34:10.758Z,25.90
2023-01-21T05:39:12.397Z,26.38
2023-01-21T05:44:15.584Z,25.95
2023-01-21T05:49:19.761Z,25.80
2023-01-21T05:54:21.472Z,26.23
2023-01-21T05:59:23.149Z,27.27
2023-01-21T06:04:30.508Z,25.45
2023-01-21T06:09:32.165Z,26.73
2023-01-21T06:14:34.035Z,27.08
2023-01-21T06:19:35.787Z,26.15
2023-01-21T06:24:39.936Z,27.05
2023-01-21T06:29:41.629Z,25.60
2023-01-21T06:34:45.786Z,26.42
2023-01-21T06:39:48.366Z,25.02
2023-01-21T06:44:50.178Z,27.85
2023-01-21T06:49:51.854Z,25.77
2023-01-21T06:54:53.559Z,27.63
2023-01-21T06:59:55.396Z,27.52
2023-01-21T07:04:59.032Z,24.52
2023-01-21T07:10:00.948Z,25.83
2023-01-21T07:15:02.779Z,25.10
2023-01-21T07:20:05.572Z,25.08
2023-01-21T07:25:07.974Z,24.85
2023-01-21T07:30:20.115Z,22.88
2023-01-21T07:35:21.803Z,26.23
2023-01-21T07:40:23.431Z,24.52
2023-01-21T07:45:25.725Z,25.33
2023-01-21T07:50:27.713Z,25.95
2023-01-21T07:55:30.041Z,26.55
2023-01-21T08:00:31.875Z,25.13
2023-01-21T08:05:33.671Z,26.40
2023-01-21T08:10:35.442Z,24.50
2023-01-21T08:15:37.771Z,26.95
2023-01-21T08:20:39.515Z,26.17
2023-01-21T08:25:43.834Z,24.35
2023-01-21T08:30:45.601Z,26.90
2023-01-21T08:35:47.527Z,25.08
2023-01-21T08:40:49.199Z,24.83
2023-01-21T08:45:51.152Z,26.63
2023-01-21T08:50:52.983Z,26.67
2023-01-21T08:55:59.168Z,26.83
2023-01-21T09:01:08.285Z,27.25
2023-01-21T09:06:11.336Z,28.92
2023-01-21T09:11:13.007Z,29.42
2023-01-21T09:16:20.325Z,28.02
2023-01-21T09:21:22.179Z,30.60
2023-01-21T09:26:25.314Z,31.08
2023-01-21T09:31:29.032Z,27.55
2023-01-21T09:36:33.367Z,27.83
2023-01-21T09:41:38.212Z,30.40
2023-01-21T09:47:15.107Z,27.85
2023-01-21T09:52:41.526Z,26.48
2023-01-21T09:57:53.075Z,26.40
2023-01-21T10:03:21.595Z,26.30
2023-01-21T10:08:46.770Z,23.75
2023-01-21T10:14:00.594Z,23.23
2023-01-21T10:19:04.547Z,26.75
2023-01-21T10:24:17.183Z,25.33
2023-01-21T10:29:21.612Z,26.67
2023-01-21T10:34:23.594Z,26.83
2023-01-21T10:39:29.136Z,27.13
2023-01-21T10:44:48.982Z,26.48
2023-01-21T10:50:11.694Z,26.70
2023-01-21T10:55:21.945Z,25.05
2023-01-21T11:00:32.652Z,25.45
2023-01-21T11:05:35.260Z,25.50
2023-01-21T11:10:36.942Z,24.63
2023-01-21T11:15:46.460Z,22.30
2023-01-21T11:20:48.271Z,22.60
2023-01-21T11:25:50.073Z,20.73
2023-01-21T11:31:06.743Z,20.20
2023-01-21T11:36:14.812Z,19.10
2023-01-21T11:41:21.979Z,19.85
2023-01-21T11:46:28.939Z,15.98
2023-01-21T11:51:30.798Z,17.63
2023-01-21T11:56:32.612Z,14.82
2023-01-21T12:01:34.426Z,14.18
2023-01-21T12:06:37.738Z,12.82
2023-01-21T12:11:39.411Z,11.93
2023-01-21T12:17:05.533Z,12.70
2023-01-21T12:22:24.727Z,13.50
2023-01-21T12:27:51.203Z,13.80
2023-01-21T12:32:58.582Z,14.25
2023-01-21T12:38:33.595Z,13.32
2023-01-21T12:43:43.332Z,13.70
2023-01-21T12:48:49.091Z,14.02
2023-01-21T12:53:57.372Z,15.10
2023-01-21T12:59:04.777Z,14.30
2023-01-21T13:04:29.978Z,14.82
2023-01-21T13:09:51.576Z,14.23
2023-01-21T13:15:01.914Z,13.07
2023-01-21T13:20:19.123Z,15.23
2023-01-21T13:25:26.251Z,13.52
2023-01-21T13:30:35.284Z,14.68
2023-01-21T13:35:43.367Z,13.88
2023-01-21T13:40:54.921Z,14.27
2023-01-21T13:46:05.733Z,13.55
2023-01-21T13:51:07.571Z,13.13
2023-01-21T13:56:09.177Z,11.85
2023-01-21T14:01:22.113Z,12.65
2023-01-21T14:06:32.301Z,12.43
2023-01-21T14:17:29.472Z,11.60
2023-01-21T14:23:04.930Z,13.27
2023-01-21T14:28:18.866Z,14.13
2023-01-21T14:33:26.708Z,14.75
2023-01-21T14:39:02.588Z,16.95
2023-01-21T14:44:04.439Z,16.48
2023-01-21T14:49:08.984Z,20.08
2023-01-21T14:54:17.019Z,20.73
2023-01-21T14:59:39.110Z,18.58
2023-01-21T15:04:54.272Z,19.80
2023-01-21T15:09:58.874Z,20.70
2023-01-21T15:15:35.031Z,20.60
2023-01-21T15:20:44.337Z,20.02
2023-01-21T15:26:17.126Z,20.10
2023-01-21T15:31:21.132Z,20.95
2023-01-21T15:36:38.696Z,20.75
2023-01-21T15:41:59.948Z,21.20
2023-01-21T15:47:39.252Z,20.33
2023-01-21T15:53:09.704Z,20.60
2023-01-21T15:58:32.503Z,21.40
2023-01-21T16:04:06.428Z,22.33
2023-01-21T16:09:11.911Z,22.45
2023-01-21T16:14:38.857Z,22.85
2023-01-21T16:19:46.787Z,22.42
2023-01-21T16:24:54.002Z,23.88
2023-01-21T16:30:01.072Z,25.25
2023-01-21T16:35:03.258Z,23.25
2023-01-21T16:40:23.954Z,24.90
2023-01-21T16:45:26.193Z,22.55
2023-01-21T16:50:30.720Z,26.35
2023-01-21T16:55:32.540Z,26.00
2023-01-21T17:00:34.383Z,25.48
2023-01-21T17:05:40.351Z,24.13
2023-01-21T17:11:03.941Z,25.90
2023-01-21T17:16:07.413Z,30.77
2023-01-21T17:21:14.329Z,27.92
2023-01-21T17:26:20.538Z,26.08
2023-01-21T17:31:30.030Z,28.10
2023-01-21T17:36:37.960Z,26.37
2023-01-21T17:41:43.406Z,26.13
2023-01-21T17:46:48.555Z,25.63
2023-01-21T17:51:52.431Z,26.90
2023-01-21T17:56:58.833Z,23.10
2023-01-21T18:02:05.596Z,25.63
2023-01-21T18:07:21.914Z,26.98
2023-01-21T18:12:23.793Z,27.33
2023-01-21T18:17:26.064Z,23.95
2023-01-21T18:22:30.514Z,23.20
2023-01-21T18:27:32.427Z,25.35
2023-01-21T18:32:34.200Z,25.60
2023-01-21T18:37:35.961Z,24.52
2023-01-21T18:42:37.796Z,24.95
2023-01-21T18:47:39.596Z,23.80
2023-01-21T18:52:41.433Z,26.30
2023-01-21T18:57:45.317Z,27.73
2023-01-21T19:02:47.413Z,29.55
2023-01-21T19:07:49.067Z,28.05
2023-01-21T19:12:53.105Z,28.85
2023-01-21T19:17:55.901Z,27.48
2023-01-21T19:22:57.538Z,28.65
2023-01-21T19:27:59.722Z,25.13
2023-01-21T19:33:01.661Z,27.55
2023-01-21T19:38:10.053Z,29.85
2023-01-21T19:43:14.230Z,33.25
2023-01-21T19:48:18.716Z,30.23
2023-01-21T19:53:22.363Z,31.17
2023-01-21T19:58:28.554Z,35.50
2023-01-21T20:03:30.716Z,34.58
2023-01-21T20:08:36.356Z,29.70
2023-01-21T20:13:39.470Z,32.20
2023-01-21T20:18:41.686Z,31.38
2023-01-21T20:23:43.978Z,30.27
2023-01-21T20:28:51.548Z,28.42
2023-01-21T20:33:53.409Z,34.75
2023-01-21T20:38:56.006Z,31.10
2023-01-21T20:43:58.013Z,35.10
2023-01-21T20:48:59.982Z,31.33
2023-01-21T20:54:01.970Z,31.70
2023-01-21T20:59:04.669Z,32.22
2023-01-21T21:04:06.550Z,33.65
2023-01-21T21:09:10.962Z,34.15
2023-01-21T21:14:17.643Z,33.35
2023-01-21T21:19:20.070Z,33.20
2023-01-21T21:24:26.108Z,34.45
2023-01-21T21:29:28.713Z,33.55
2023-01-21T21:34:30.736Z,35.67
2023-01-21T21:39:33.190Z,35.75
2023-01-21T21:44:37.213Z,35.30
2023-01-21T21:49:39.026Z,33.33
2023-01-21T21:54:43.941Z,35.72
2023-01-21T21:59:47.413Z,31.63
2023-01-21T22:04:49.443Z,28.50
2023-01-21T22:09:52.158Z,25.85
2023-01-21T22:14:53.989Z,26.70
2023-01-21T22:19:55.691Z,27.17
2023-01-21T22:24:57.462Z,24.92
2023-01-21T22:30:01.362Z,25.85
2023-01-21T22:35:03.790Z,27.02
2023-01-21T22:40:06.440Z,24.08
2023-01-21T22:45:09.007Z,25.63
2023-01-21T22:50:12.069Z,24.52
2023-01-21T22:55:14.015Z,22.05
2023-01-21T23:00:37.720Z,22.40
2023-01-21T23:05:39.520Z,21.13
2023-01-21T23:10:42.670Z,18.65
2023-01-21T23:15:46.164Z,17.40
2023-01-21T23:20:48.672Z,18.35
2023-01-21T23:25:50.652Z,17.90
2023-01-21T23:30:53.911Z,16.42
2023-01-21T23:35:55.825Z,13.52
2023-01-21T23:40:57.794Z,13.38
2023-01-21T23:45:59.562Z,12.70
2023-01-21T23:51:03.992Z,11.70
2023-01-21T23:56:10.557Z,12.57
